sensor_id;sensor_type;location;lat;lon;timestamp;P1;durP1;ratioP1;P2;durP2;ratioP2
16963;SDS011;8598;50.508;10.436;2022-10-31T00:01:40;71.87;;;16.90;;
16963;SDS011;8598;50.508;10.436;2022-10-31T00:04:07;58.57;;;16.30;;
16963;SDS011;8598;50.508;10.436;2022-10-31T00:06:33;72.30;;;16.07;;
16963;SDS011;8598;50.508;10.436;2022-10-31T00:09:01;45.40;;;14.87;;
16963;SDS011;8598;50.508;10.436;2022-10-31T00:11:29;16.10;;;11.00;;
16963;SDS011;8598;50.508;10.436;2022-10-31T00:13:57;25.40;;;12.80;;
16963;SDS011;8598;50.508;10.436;2022-10-31T00:16:24;63.37;;;14.77;;
16963;SDS011;8598;50.508;10.436;2022-10-31T00:18:53;37.93;;;13.63;;
16963;SDS011;8598;50.508;10.436;2022-10-31T00:21:21;23.20;;;13.53;;
16963;SDS011;8598;50.508;10.436;2022-10-31T00:23:48;34.80;;;14.80;;
16963;SDS011;8598;50.508;10.436;2022-10-31T00:26:15;56.50;;;15.87;;
16963;SDS011;8598;50.508;10.436;2022-10-31T00:28:42;46.10;;;14.90;;
16963;SDS011;8598;50.508;10.436;2022-10-31T00:31:10;37.50;;;14.30;;
16963;SDS011;8598;50.508;10.436;2022-10-31T00:33:38;126.57;;;18.87;;
16963;SDS011;8598;50.508;10.436;2022-10-31T00:36:08;122.33;;;18.20;;
16963;SDS011;8598;50.508;10.436;2022-10-31T00:38:41;66.67;;;15.80;;
16963;SDS011;8598;50.508;10.436;2022-10-31T00:41:09;104.53;;;15.80;;
16963;SDS011;8598;50.508;10.436;2022-10-31T00:43:35;176.60;;;19.40;;
16963;SDS011;8598;50.508;10.436;2022-10-31T00:46:02;121.07;;;17.27;;
16963;SDS011;8598;50.508;10.436;2022-10-31T00:48:29;93.60;;;15.77;;
16963;SDS011;8598;50.508;10.436;2022-10-31T00:50:56;176.63;;;17.77;;
16963;SDS011;8598;50.508;10.436;2022-10-31T00:53:24;136.90;;;16.83;;
16963;SDS011;8598;50.508;10.436;2022-10-31T00:55:51;169.83;;;19.70;;
16963;SDS011;8598;50.508;10.436;2022-10-31T00:58:18;29.67;;;15.03;;
16963;SDS011;8598;50.508;10.436;2022-10-31T01:00:46;147.73;;;17.60;;
16963;SDS011;8598;50.508;10.436;2022-10-31T01:03:19;157.93;;;19.37;;
16963;SDS011;8598;50.508;10.436;2022-10-31T01:05:54;222.13;;;23.43;;
16963;SDS011;8598;50.508;10.436;2022-10-31T01:08:21;328.87;;;31.47;;
16963;SDS011;8598;50.508;10.436;2022-10-31T01:10:58;95.20;;;18.93;;
16963;SDS011;8598;50.508;10.436;2022-10-31T01:13:30;292.70;;;28.63;;
16963;SDS011;8598;50.508;10.436;2022-10-31T01:15:57;161.93;;;24.47;;
16963;SDS011;8598;50.508;10.436;2022-10-31T01:18:25;134.40;;;24.07;;
16963;SDS011;8598;50.508;10.436;2022-10-31T01:20:59;94.57;;;20.77;;
16963;SDS011;8598;50.508;10.436;2022-10-31T01:23:27;195.77;;;24.53;;
16963;SDS011;8598;50.508;10.436;2022-10-31T01:26:03;102.17;;;21.57;;
16963;SDS011;8598;50.508;10.436;2022-10-31T01:28:32;257.80;;;24.60;;
16963;SDS011;8598;50.508;10.436;2022-10-31T01:31:00;77.37;;;16.03;;
16963;SDS011;8598;50.508;10.436;2022-10-31T01:33:27;52.33;;;15.27;;
16963;SDS011;8598;50.508;10.436;2022-10-31T01:35:54;215.37;;;21.27;;
16963;SDS011;8598;50.508;10.436;2022-10-31T01:38:21;174.93;;;20.47;;
16963;SDS011;8598;50.508;10.436;2022-10-31T01:40:48;230.73;;;17.53;;
16963;SDS011;8598;50.508;10.436;2022-10-31T01:43:16;191.27;;;16.07;;
16963;SDS011;8598;50.508;10.436;2022-10-31T01:45:44;219.67;;;16.57;;
16963;SDS011;8598;50.508;10.436;2022-10-31T01:48:15;185.43;;;16.73;;
16963;SDS011;8598;50.508;10.436;2022-10-31T01:50:45;237.73;;;17.40;;
16963;SDS011;8598;50.508;10.436;2022-10-31T01:53:17;207.27;;;16.03;;
16963;SDS011;8598;50.508;10.436;2022-10-31T01:55:44;133.80;;;13.53;;
16963;SDS011;8598;50.508;10.436;2022-10-31T01:58:13;121.10;;;17.53;;
16963;SDS011;8598;50.508;10.436;2022-10-31T02:00:44;198.00;;;17.70;;
16963;SDS011;8598;50.508;10.436;2022-10-31T02:03:14;230.70;;;17.87;;
16963;SDS011;8598;50.508;10.436;2022-10-31T02:05:41;131.70;;;14.50;;
16963;SDS011;8598;50.508;10.436;2022-10-31T02:08:09;95.57;;;13.23;;
16963;SDS011;8598;50.508;10.436;2022-10-31T02:10:42;105.03;;;15.87;;
16963;SDS011;8598;50.508;10.436;2022-10-31T02:13:09;79.93;;;14.20;;
16963;SDS011;8598;50.508;10.436;2022-10-31T02:15:38;38.33;;;11.90;;
16963;SDS011;8598;50.508;10.436;2022-10-31T02:18:07;58.13;;;14.23;;
16963;SDS011;8598;50.508;10.436;2022-10-31T02:20:37;24.30;;;11.90;;
16963;SDS011;8598;50.508;10.436;2022-10-31T02:23:25;35.80;;;12.77;;
16963;SDS011;8598;50.508;10.436;2022-10-31T02:26:12;67.47;;;12.53;;
16963;SDS011;8598;50.508;10.436;2022-10-31T02:28:57;104.43;;;15.00;;
16963;SDS011;8598;50.508;10.436;2022-10-31T02:31:38;110.80;;;12.87;;
16963;SDS011;8598;50.508;10.436;2022-10-31T02:34:10;146.23;;;14.80;;
16963;SDS011;8598;50.508;10.436;2022-10-31T02:36:45;22.30;;;9.43;;
16963;SDS011;8598;50.508;10.436;2022-10-31T02:39:19;15.80;;;9.97;;
16963;SDS011;8598;50.508;10.436;2022-10-31T02:41:52;24.87;;;10.80;;
16963;SDS011;8598;50.508;10.436;2022-10-31T02:44:27;20.13;;;11.23;;
16963;SDS011;8598;50.508;10.436;2022-10-31T02:47:01;51.43;;;12.57;;
16963;SDS011;8598;50.508;10.436;2022-10-31T02:49:32;77.70;;;12.87;;
16963;SDS011;8598;50.508;10.436;2022-10-31T02:52:12;81.43;;;13.93;;
16963;SDS011;8598;50.508;10.436;2022-10-31T02:54:40;80.27;;;12.47;;
16963;SDS011;8598;50.508;10.436;2022-10-31T02:57:07;94.43;;;13.43;;
16963;SDS011;8598;50.508;10.436;2022-10-31T02:59:34;56.73;;;12.63;;
16963;SDS011;8598;50.508;10.436;2022-10-31T03:02:19;47.47;;;10.83;;
16963;SDS011;8598;50.508;10.436;2022-10-31T03:05:04;91.67;;;15.20;;
16963;SDS011;8598;50.508;10.436;2022-10-31T03:07:39;86.30;;;12.87;;
16963;SDS011;8598;50.508;10.436;2022-10-31T03:10:14;60.80;;;12.73;;
16963;SDS011;8598;50.508;10.436;2022-10-31T03:12:47;52.73;;;11.00;;
16963;SDS011;8598;50.508;10.436;2022-10-31T03:15:20;172.10;;;14.73;;
16963;SDS011;8598;50.508;10.436;2022-10-31T03:17:52;173.93;;;14.67;;
16963;SDS011;8598;50.508;10.436;2022-10-31T03:20:29;170.83;;;12.97;;
16963;SDS011;8598;50.508;10.436;2022-10-31T03:23:00;184.50;;;14.00;;
16963;SDS011;8598;50.508;10.436;2022-10-31T03:25:29;40.90;;;9.17;;
16963;SDS011;8598;50.508;10.436;2022-10-31T03:27:57;318.17;;;19.90;;
16963;SDS011;8598;50.508;10.436;2022-10-31T03:30:27;166.63;;;12.70;;
16963;SDS011;8598;50.508;10.436;2022-10-31T03:32:57;213.13;;;13.53;;
16963;SDS011;8598;50.508;10.436;2022-10-31T03:35:26;109.20;;;15.40;;
16963;SDS011;8598;50.508;10.436;2022-10-31T03:37:54;116.50;;;11.87;;
16963;SDS011;8598;50.508;10.436;2022-10-31T03:40:22;235.00;;;15.60;;
16963;SDS011;8598;50.508;10.436;2022-10-31T03:42:53;139.47;;;12.90;;
16963;SDS011;8598;50.508;10.436;2022-10-31T03:45:23;134.53;;;11.87;;
16963;SDS011;8598;50.508;10.436;2022-10-31T03:47:52;55.30;;;9.17;;
16963;SDS011;8598;50.508;10.436;2022-10-31T03:50:21;93.70;;;10.67;;
16963;SDS011;8598;50.508;10.436;2022-10-31T03:52:52;155.40;;;11.50;;
16963;SDS011;8598;50.508;10.436;2022-10-31T03:55:24;104.67;;;10.20;;
16963;SDS011;8598;50.508;10.436;2022-10-31T03:57:57;28.63;;;6.73;;
16963;SDS011;8598;50.508;10.436;2022-10-31T04:00:26;84.77;;;9.80;;
16963;SDS011;8598;50.508;10.436;2022-10-31T04:02:53;35.50;;;7.73;;
16963;SDS011;8598;50.508;10.436;2022-10-31T04:05:28;17.03;;;6.97;;
16963;SDS011;8598;50.508;10.436;2022-10-31T04:07:57;73.73;;;7.70;;
16963;SDS011;8598;50.508;10.436;2022-10-31T04:10:25;56.23;;;8.97;;
16963;SDS011;8598;50.508;10.436;2022-10-31T04:12:54;121.77;;;10.43;;
16963;SDS011;8598;50.508;10.436;2022-10-31T04:15:24;69.43;;;9.50;;
16963;SDS011;8598;50.508;10.436;2022-10-31T04:17:53;60.27;;;9.87;;
16963;SDS011;8598;50.508;10.436;2022-10-31T04:20:30;37.07;;;7.70;;
16963;SDS011;8598;50.508;10.436;2022-10-31T04:22:58;25.40;;;8.50;;
16963;SDS011;8598;50.508;10.436;2022-10-31T04:25:25;89.43;;;10.37;;
16963;SDS011;8598;50.508;10.436;2022-10-31T04:27:52;29.97;;;8.13;;
16963;SDS011;8598;50.508;10.436;2022-10-31T04:30:19;22.40;;;7.70;;
16963;SDS011;8598;50.508;10.436;2022-10-31T04:32:46;51.87;;;8.43;;
16963;SDS011;8598;50.508;10.436;2022-10-31T04:35:13;54.07;;;8.90;;
16963;SDS011;8598;50.508;10.436;2022-10-31T04:37:41;54.07;;;9.03;;
16963;SDS011;8598;50.508;10.436;2022-10-31T04:40:08;79.27;;;10.77;;
16963;SDS011;8598;50.508;10.436;2022-10-31T04:42:35;97.33;;;10.60;;
16963;SDS011;8598;50.508;10.436;2022-10-31T04:45:02;48.03;;;8.80;;
16963;SDS011;8598;50.508;10.436;2022-10-31T04:47:30;35.73;;;8.33;;
16963;SDS011;8598;50.508;10.436;2022-10-31T04:49:58;77.30;;;10.07;;
16963;SDS011;8598;50.508;10.436;2022-10-31T04:52:25;82.40;;;10.33;;
16963;SDS011;8598;50.508;10.436;2022-10-31T04:54:53;54.07;;;11.27;;
16963;SDS011;8598;50.508;10.436;2022-10-31T04:57:19;36.17;;;8.50;;
16963;SDS011;8598;50.508;10.436;2022-10-31T04:59:46;102.77;;;9.70;;
16963;SDS011;8598;50.508;10.436;2022-10-31T05:02:13;64.47;;;9.33;;
16963;SDS011;8598;50.508;10.436;2022-10-31T05:04:40;70.57;;;8.00;;
16963;SDS011;8598;50.508;10.436;2022-10-31T05:07:06;77.50;;;8.87;;
16963;SDS011;8598;50.508;10.436;2022-10-31T05:09:33;75.53;;;9.97;;
16963;SDS011;8598;50.508;10.436;2022-10-31T05:12:01;25.03;;;8.00;;
16963;SDS011;8598;50.508;10.436;2022-10-31T05:14:28;76.60;;;9.70;;
16963;SDS011;8598;50.508;10.436;2022-10-31T05:16:55;25.00;;;6.90;;
16963;SDS011;8598;50.508;10.436;2022-10-31T05:19:21;50.10;;;8.97;;
16963;SDS011;8598;50.508;10.436;2022-10-31T05:21:48;59.67;;;8.57;;
16963;SDS011;8598;50.508;10.436;2022-10-31T05:24:15;47.10;;;8.37;;
16963;SDS011;8598;50.508;10.436;2022-10-31T05:26:41;69.07;;;8.93;;
16963;SDS011;8598;50.508;10.436;2022-10-31T05:29:10;97.87;;;10.20;;
16963;SDS011;8598;50.508;10.436;2022-10-31T05:31:36;24.27;;;8.37;;
16963;SDS011;8598;50.508;10.436;2022-10-31T05:34:03;56.67;;;8.90;;
16963;SDS011;8598;50.508;10.436;2022-10-31T05:36:30;26.80;;;8.33;;
16963;SDS011;8598;50.508;10.436;2022-10-31T05:38:56;46.73;;;9.27;;
16963;SDS011;8598;50.508;10.436;2022-10-31T05:41:23;26.17;;;8.77;;
16963;SDS011;8598;50.508;10.436;2022-10-31T05:43:50;16.53;;;7.60;;
16963;SDS011;8598;50.508;10.436;2022-10-31T05:46:18;100.00;;;10.40;;
16963;SDS011;8598;50.508;10.436;2022-10-31T05:48:45;120.37;;;11.13;;
16963;SDS011;8598;50.508;10.436;2022-10-31T05:51:12;128.53;;;10.20;;
16963;SDS011;8598;50.508;10.436;2022-10-31T05:53:38;74.03;;;9.60;;
16963;SDS011;8598;50.508;10.436;2022-10-31T05:56:05;65.60;;;8.70;;
16963;SDS011;8598;50.508;10.436;2022-10-31T05:58:32;113.83;;;10.80;;
16963;SDS011;8598;50.508;10.436;2022-10-31T06:00:59;51.23;;;8.00;;
16963;SDS011;8598;50.508;10.436;2022-10-31T06:03:27;20.47;;;7.30;;
16963;SDS011;8598;50.508;10.436;2022-10-31T06:05:54;46.80;;;7.47;;
16963;SDS011;8598;50.508;10.436;2022-10-31T06:08:20;88.63;;;10.93;;
16963;SDS011;8598;50.508;10.436;2022-10-31T06:10:47;134.03;;;11.20;;
16963;SDS011;8598;50.508;10.436;2022-10-31T06:13:14;115.80;;;10.57;;
16963;SDS011;8598;50.508;10.436;2022-10-31T06:15:41;65.27;;;7.93;;
16963;SDS011;8598;50.508;10.436;2022-10-31T06:18:07;51.93;;;8.60;;
16963;SDS011;8598;50.508;10.436;2022-10-31T06:20:36;198.63;;;11.47;;
16963;SDS011;8598;50.508;10.436;2022-10-31T06:23:03;133.97;;;10.53;;
16963;SDS011;8598;50.508;10.436;2022-10-31T06:25:30;39.60;;;8.07;;
16963;SDS011;8598;50.508;10.436;2022-10-31T06:27:57;50.63;;;8.20;;
16963;SDS011;8598;50.508;10.436;2022-10-31T06:30:24;131.17;;;12.73;;
16963;SDS011;8598;50.508;10.436;2022-10-31T06:32:51;71.67;;;9.57;;
16963;SDS011;8598;50.508;10.436;2022-10-31T06:35:18;56.17;;;10.00;;
16963;SDS011;8598;50.508;10.436;2022-10-31T06:37:51;78.10;;;9.83;;
16963;SDS011;8598;50.508;10.436;2022-10-31T06:40:18;149.90;;;20.57;;
16963;SDS011;8598;50.508;10.436;2022-10-31T06:42:45;37.20;;;12.57;;
16963;SDS011;8598;50.508;10.436;2022-10-31T06:45:12;111.77;;;11.73;;
16963;SDS011;8598;50.508;10.436;2022-10-31T06:47:39;159.40;;;12.47;;
16963;SDS011;8598;50.508;10.436;2022-10-31T06:50:06;83.60;;;8.83;;
16963;SDS011;8598;50.508;10.436;2022-10-31T06:52:33;57.90;;;8.67;;
16963;SDS011;8598;50.508;10.436;2022-10-31T06:55:01;104.37;;;10.40;;
16963;SDS011;8598;50.508;10.436;2022-10-31T06:57:28;98.53;;;9.73;;
16963;SDS011;8598;50.508;10.436;2022-10-31T06:59:54;74.97;;;9.63;;
16963;SDS011;8598;50.508;10.436;2022-10-31T07:02:21;92.77;;;10.10;;
16963;SDS011;8598;50.508;10.436;2022-10-31T07:04:48;106.10;;;9.60;;
16963;SDS011;8598;50.508;10.436;2022-10-31T07:07:15;51.27;;;8.60;;
16963;SDS011;8598;50.508;10.436;2022-10-31T07:09:41;78.10;;;8.80;;
16963;SDS011;8598;50.508;10.436;2022-10-31T07:12:09;74.70;;;7.93;;
16963;SDS011;8598;50.508;10.436;2022-10-31T07:14:36;114.13;;;9.97;;
16963;SDS011;8598;50.508;10.436;2022-10-31T07:17:03;68.83;;;8.13;;
16963;SDS011;8598;50.508;10.436;2022-10-31T07:19:29;64.30;;;8.23;;
16963;SDS011;8598;50.508;10.436;2022-10-31T07:21:56;62.50;;;9.07;;
16963;SDS011;8598;50.508;10.436;2022-10-31T07:24:23;72.47;;;9.53;;
16963;SDS011;8598;50.508;10.436;2022-10-31T07:26:53;72.03;;;9.20;;
16963;SDS011;8598;50.508;10.436;2022-10-31T07:29:21;34.43;;;7.10;;
16963;SDS011;8598;50.508;10.436;2022-10-31T07:31:47;74.00;;;8.17;;
16963;SDS011;8598;50.508;10.436;2022-10-31T07:34:14;42.27;;;7.47;;
16963;SDS011;8598;50.508;10.436;2022-10-31T07:36:41;77.53;;;8.80;;
16963;SDS011;8598;50.508;10.436;2022-10-31T07:39:08;82.97;;;8.40;;
16963;SDS011;8598;50.508;10.436;2022-10-31T07:41:34;102.13;;;9.10;;
16963;SDS011;8598;50.508;10.436;2022-10-31T07:44:01;173.07;;;10.83;;
16963;SDS011;8598;50.508;10.436;2022-10-31T07:46:29;37.90;;;7.13;;
16963;SDS011;8598;50.508;10.436;2022-10-31T07:48:56;38.43;;;7.77;;
16963;SDS011;8598;50.508;10.436;2022-10-31T07:51:23;105.67;;;8.63;;
16963;SDS011;8598;50.508;10.436;2022-10-31T07:53:49;138.27;;;10.37;;
16963;SDS011;8598;50.508;10.436;2022-10-31T07:56:16;110.40;;;8.27;;
16963;SDS011;8598;50.508;10.436;2022-10-31T07:58:43;23.60;;;6.30;;
16963;SDS011;8598;50.508;10.436;2022-10-31T08:01:10;33.87;;;7.80;;
16963;SDS011;8598;50.508;10.436;2022-10-31T08:03:38;38.27;;;6.00;;
16963;SDS011;8598;50.508;10.436;2022-10-31T08:06:04;18.87;;;5.50;;
16963;SDS011;8598;50.508;10.436;2022-10-31T08:08:32;51.50;;;6.57;;
16963;SDS011;8598;50.508;10.436;2022-10-31T08:10:58;40.70;;;7.00;;
16963;SDS011;8598;50.508;10.436;2022-10-31T08:13:25;10.97;;;5.80;;
16963;SDS011;8598;50.508;10.436;2022-10-31T08:15:52;51.53;;;6.30;;
16963;SDS011;8598;50.508;10.436;2022-10-31T08:18:19;45.50;;;6.83;;
16963;SDS011;8598;50.508;10.436;2022-10-31T08:20:49;27.13;;;5.07;;
16963;SDS011;8598;50.508;10.436;2022-10-31T08:23:16;37.27;;;5.90;;
16963;SDS011;8598;50.508;10.436;2022-10-31T08:25:43;60.90;;;5.73;;
16963;SDS011;8598;50.508;10.436;2022-10-31T08:28:11;31.70;;;5.33;;
16963;SDS011;8598;50.508;10.436;2022-10-31T08:30:39;29.13;;;4.30;;
16963;SDS011;8598;50.508;10.436;2022-10-31T08:33:08;70.13;;;6.23;;
16963;SDS011;8598;50.508;10.436;2022-10-31T08:35:36;24.47;;;4.50;;
16963;SDS011;8598;50.508;10.436;2022-10-31T08:38:04;41.17;;;4.97;;
16963;SDS011;8598;50.508;10.436;2022-10-31T08:40:32;19.77;;;4.60;;
16963;SDS011;8598;50.508;10.436;2022-10-31T08:43:01;9.10;;;4.13;;
16963;SDS011;8598;50.508;10.436;2022-10-31T08:45:29;33.90;;;4.73;;
16963;SDS011;8598;50.508;10.436;2022-10-31T08:47:57;42.77;;;4.73;;
16963;SDS011;8598;50.508;10.436;2022-10-31T08:50:25;9.83;;;4.00;;
16963;SDS011;8598;50.508;10.436;2022-10-31T08:52:52;7.80;;;3.70;;
16963;SDS011;8598;50.508;10.436;2022-10-31T08:55:20;4.10;;;3.63;;
16963;SDS011;8598;50.508;10.436;2022-10-31T08:57:47;6.33;;;3.80;;
16963;SDS011;8598;50.508;10.436;2022-10-31T09:00:14;4.47;;;3.47;;
16963;SDS011;8598;50.508;10.436;2022-10-31T09:02:41;11.70;;;7.13;;
16963;SDS011;8598;50.508;10.436;2022-10-31T09:05:07;11.03;;;5.83;;
16963;SDS011;8598;50.508;10.436;2022-10-31T09:07:34;12.30;;;6.53;;
16963;SDS011;8598;50.508;10.436;2022-10-31T09:10:01;8.63;;;5.90;;
16963;SDS011;8598;50.508;10.436;2022-10-31T09:12:29;7.63;;;4.60;;
16963;SDS011;8598;50.508;10.436;2022-10-31T09:14:56;7.60;;;3.90;;
16963;SDS011;8598;50.508;10.436;2022-10-31T09:17:25;4.80;;;3.83;;
16963;SDS011;8598;50.508;10.436;2022-10-31T09:19:54;4.33;;;3.93;;
16963;SDS011;8598;50.508;10.436;2022-10-31T09:22:20;4.70;;;4.10;;
16963;SDS011;8598;50.508;10.436;2022-10-31T09:24:47;4.70;;;3.57;;
16963;SDS011;8598;50.508;10.436;2022-10-31T09:27:14;3.53;;;3.23;;
16963;SDS011;8598;50.508;10.436;2022-10-31T09:29:42;4.17;;;3.60;;
16963;SDS011;8598;50.508;10.436;2022-10-31T09:32:09;5.57;;;3.63;;
16963;SDS011;8598;50.508;10.436;2022-10-31T09:34:36;5.33;;;3.90;;
16963;SDS011;8598;50.508;10.436;2022-10-31T09:37:02;4.43;;;3.70;;
16963;SDS011;8598;50.508;10.436;2022-10-31T09:39:29;4.00;;;3.60;;
16963;SDS011;8598;50.508;10.436;2022-10-31T09:42:00;6.90;;;3.80;;
16963;SDS011;8598;50.508;10.436;2022-10-31T09:44:43;5.83;;;4.40;;
16963;SDS011;8598;50.508;10.436;2022-10-31T09:47:17;7.80;;;3.97;;
16963;SDS011;8598;50.508;10.436;2022-10-31T09:50:06;5.50;;;5.00;;
16963;SDS011;8598;50.508;10.436;2022-10-31T09:52:41;6.50;;;4.23;;
16963;SDS011;8598;50.508;10.436;2022-10-31T09:55:13;10.90;;;4.30;;
16963;SDS011;8598;50.508;10.436;2022-10-31T09:57:42;11.67;;;4.40;;
16963;SDS011;8598;50.508;10.436;2022-10-31T10:00:16;6.07;;;3.90;;
16963;SDS011;8598;50.508;10.436;2022-10-31T10:02:46;8.40;;;3.90;;
16963;SDS011;8598;50.508;10.436;2022-10-31T10:05:18;6.87;;;4.23;;
16963;SDS011;8598;50.508;10.436;2022-10-31T10:07:50;4.90;;;4.20;;
16963;SDS011;8598;50.508;10.436;2022-10-31T10:10:23;11.73;;;5.17;;
16963;SDS011;8598;50.508;10.436;2022-10-31T10:13:00;5.27;;;4.40;;
16963;SDS011;8598;50.508;10.436;2022-10-31T10:18:26;8.87;;;4.27;;
16963;SDS011;8598;50.508;10.436;2022-10-31T10:21:09;7.40;;;3.97;;
16963;SDS011;8598;50.508;10.436;2022-10-31T10:23:48;8.37;;;4.73;;
16963;SDS011;8598;50.508;10.436;2022-10-31T10:26:25;7.20;;;4.40;;
16963;SDS011;8598;50.508;10.436;2022-10-31T10:28:57;8.30;;;4.20;;
16963;SDS011;8598;50.508;10.436;2022-10-31T10:31:29;7.20;;;4.97;;
16963;SDS011;8598;50.508;10.436;2022-10-31T10:34:01;6.90;;;5.20;;
16963;SDS011;8598;50.508;10.436;2022-10-31T10:36:35;7.00;;;4.63;;
16963;SDS011;8598;50.508;10.436;2022-10-31T10:39:08;9.53;;;5.47;;
16963;SDS011;8598;50.508;10.436;2022-10-31T10:41:41;6.10;;;4.80;;
16963;SDS011;8598;50.508;10.436;2022-10-31T10:44:27;9.33;;;5.00;;
16963;SDS011;8598;50.508;10.436;2022-10-31T10:47:12;8.00;;;5.00;;
16963;SDS011;8598;50.508;10.436;2022-10-31T10:49:57;8.20;;;5.10;;
16963;SDS011;8598;50.508;10.436;2022-10-31T10:52:27;5.87;;;4.63;;
16963;SDS011;8598;50.508;10.436;2022-10-31T10:55:03;6.67;;;5.13;;
16963;SDS011;8598;50.508;10.436;2022-10-31T10:57:44;6.87;;;4.53;;
16963;SDS011;8598;50.508;10.436;2022-10-31T11:00:20;11.83;;;4.37;;
16963;SDS011;8598;50.508;10.436;2022-10-31T11:02:49;5.07;;;4.57;;
16963;SDS011;8598;50.508;10.436;2022-10-31T11:05:20;10.83;;;5.40;;
16963;SDS011;8598;50.508;10.436;2022-10-31T11:07:54;9.10;;;5.07;;
16963;SDS011;8598;50.508;10.436;2022-10-31T11:10:21;6.03;;;4.40;;
16963;SDS011;8598;50.508;10.436;2022-10-31T11:12:58;5.73;;;3.77;;
16963;SDS011;8598;50.508;10.436;2022-10-31T11:15:32;7.23;;;4.53;;
16963;SDS011;8598;50.508;10.436;2022-10-31T11:18:04;6.30;;;4.77;;
16963;SDS011;8598;50.508;10.436;2022-10-31T11:20:31;9.70;;;4.90;;
16963;SDS011;8598;50.508;10.436;2022-10-31T11:23:01;8.03;;;5.17;;
16963;SDS011;8598;50.508;10.436;2022-10-31T11:25:47;5.87;;;4.63;;
16963;SDS011;8598;50.508;10.436;2022-10-31T11:28:16;8.90;;;4.77;;
16963;SDS011;8598;50.508;10.436;2022-10-31T11:30:43;10.37;;;5.63;;
16963;SDS011;8598;50.508;10.436;2022-10-31T11:33:16;8.07;;;4.13;;
16963;SDS011;8598;50.508;10.436;2022-10-31T11:35:46;7.30;;;4.60;;
16963;SDS011;8598;50.508;10.436;2022-10-31T11:38:15;7.17;;;4.10;;
16963;SDS011;8598;50.508;10.436;2022-10-31T11:40:51;9.13;;;4.47;;
16963;SDS011;8598;50.508;10.436;2022-10-31T11:43:20;6.37;;;3.90;;
16963;SDS011;8598;50.508;10.436;2022-10-31T11:45:48;13.10;;;4.47;;
16963;SDS011;8598;50.508;10.436;2022-10-31T11:48:17;8.17;;;3.90;;
16963;SDS011;8598;50.508;10.436;2022-10-31T11:50:50;8.20;;;4.43;;
16963;SDS011;8598;50.508;10.436;2022-10-31T11:53:19;10.63;;;4.37;;
16963;SDS011;8598;50.508;10.436;2022-10-31T11:55:59;10.80;;;4.90;;
16963;SDS011;8598;50.508;10.436;2022-10-31T11:58:29;9.03;;;4.23;;
16963;SDS011;8598;50.508;10.436;2022-10-31T12:00:56;12.00;;;4.20;;
16963;SDS011;8598;50.508;10.436;2022-10-31T12:03:30;7.73;;;5.10;;
16963;SDS011;8598;50.508;10.436;2022-10-31T12:06:09;9.60;;;5.67;;
16963;SDS011;8598;50.508;10.436;2022-10-31T12:08:42;9.63;;;4.70;;
16963;SDS011;8598;50.508;10.436;2022-10-31T12:11:12;8.40;;;4.20;;
16963;SDS011;8598;50.508;10.436;2022-10-31T12:13:54;6.83;;;4.43;;
16963;SDS011;8598;50.508;10.436;2022-10-31T12:16:29;9.47;;;5.27;;
16963;SDS011;8598;50.508;10.436;2022-10-31T12:19:04;8.17;;;4.73;;
16963;SDS011;8598;50.508;10.436;2022-10-31T12:21:55;8.73;;;4.60;;
16963;SDS011;8598;50.508;10.436;2022-10-31T12:24:33;9.07;;;4.70;;
16963;SDS011;8598;50.508;10.436;2022-10-31T12:27:10;8.27;;;4.20;;
16963;SDS011;8598;50.508;10.436;2022-10-31T12:29:47;10.93;;;4.77;;
16963;SDS011;8598;50.508;10.436;2022-10-31T12:32:31;8.67;;;4.53;;
16963;SDS011;8598;50.508;10.436;2022-10-31T12:35:09;8.53;;;4.43;;
16963;SDS011;8598;50.508;10.436;2022-10-31T12:37:56;8.83;;;4.40;;
16963;SDS011;8598;50.508;10.436;2022-10-31T12:40:43;8.27;;;4.40;;
16963;SDS011;8598;50.508;10.436;2022-10-31T12:43:28;8.70;;;5.00;;
16963;SDS011;8598;50.508;10.436;2022-10-31T12:46:02;9.50;;;4.73;;
16963;SDS011;8598;50.508;10.436;2022-10-31T12:48:46;12.97;;;5.97;;
16963;SDS011;8598;50.508;10.436;2022-10-31T12:51:25;19.43;;;5.13;;
16963;SDS011;8598;50.508;10.436;2022-10-31T12:54:07;11.23;;;4.97;;
16963;SDS011;8598;50.508;10.436;2022-10-31T12:56:51;14.73;;;4.97;;
16963;SDS011;8598;50.508;10.436;2022-10-31T12:59:28;8.40;;;4.60;;
16963;SDS011;8598;50.508;10.436;2022-10-31T13:01:59;10.20;;;5.43;;
16963;SDS011;8598;50.508;10.436;2022-10-31T13:04:38;10.57;;;5.40;;
16963;SDS011;8598;50.508;10.436;2022-10-31T13:07:15;13.13;;;4.70;;
16963;SDS011;8598;50.508;10.436;2022-10-31T13:09:48;11.00;;;5.57;;
16963;SDS011;8598;50.508;10.436;2022-10-31T13:12:20;24.93;;;13.80;;
16963;SDS011;8598;50.508;10.436;2022-10-31T13:14:49;16.63;;;7.90;;
16963;SDS011;8598;50.508;10.436;2022-10-31T13:17:21;12.37;;;6.83;;
16963;SDS011;8598;50.508;10.436;2022-10-31T13:19:51;8.63;;;5.63;;
16963;SDS011;8598;50.508;10.436;2022-10-31T13:22:26;10.90;;;4.83;;
16963;SDS011;8598;50.508;10.436;2022-10-31T13:25:02;9.47;;;4.70;;
16963;SDS011;8598;50.508;10.436;2022-10-31T13:27:36;14.63;;;4.97;;
16963;SDS011;8598;50.508;10.436;2022-10-31T13:30:12;12.03;;;4.20;;
16963;SDS011;8598;50.508;10.436;2022-10-31T13:32:42;9.23;;;4.37;;
16963;SDS011;8598;50.508;10.436;2022-10-31T13:35:13;7.93;;;5.33;;
16963;SDS011;8598;50.508;10.436;2022-10-31T13:37:46;10.17;;;4.93;;
16963;SDS011;8598;50.508;10.436;2022-10-31T13:40:20;10.27;;;5.73;;
16963;SDS011;8598;50.508;10.436;2022-10-31T13:42:57;15.80;;;5.83;;
16963;SDS011;8598;50.508;10.436;2022-10-31T13:45:28;13.87;;;6.23;;
16963;SDS011;8598;50.508;10.436;2022-10-31T13:47:56;9.83;;;5.00;;
16963;SDS011;8598;50.508;10.436;2022-10-31T13:50:25;11.87;;;4.97;;
16963;SDS011;8598;50.508;10.436;2022-10-31T13:53:07;12.13;;;6.37;;
16963;SDS011;8598;50.508;10.436;2022-10-31T13:55:41;11.33;;;6.37;;
16963;SDS011;8598;50.508;10.436;2022-10-31T13:58:23;11.33;;;5.90;;
16963;SDS011;8598;50.508;10.436;2022-10-31T14:00:58;7.00;;;5.07;;
16963;SDS011;8598;50.508;10.436;2022-10-31T14:03:37;16.57;;;5.40;;
16963;SDS011;8598;50.508;10.436;2022-10-31T14:06:05;10.83;;;5.83;;
16963;SDS011;8598;50.508;10.436;2022-10-31T14:08:35;6.90;;;5.03;;
16963;SDS011;8598;50.508;10.436;2022-10-31T14:11:06;7.87;;;5.80;;
16963;SDS011;8598;50.508;10.436;2022-10-31T14:13:35;10.13;;;6.10;;
16963;SDS011;8598;50.508;10.436;2022-10-31T14:16:07;9.07;;;6.00;;
16963;SDS011;8598;50.508;10.436;2022-10-31T14:18:45;14.33;;;7.60;;
16963;SDS011;8598;50.508;10.436;2022-10-31T14:21:15;11.30;;;6.40;;
16963;SDS011;8598;50.508;10.436;2022-10-31T14:23:54;10.07;;;6.60;;
16963;SDS011;8598;50.508;10.436;2022-10-31T14:26:32;7.60;;;5.87;;
16963;SDS011;8598;50.508;10.436;2022-10-31T14:29:02;10.97;;;5.47;;
16963;SDS011;8598;50.508;10.436;2022-10-31T14:31:51;9.13;;;5.10;;
16963;SDS011;8598;50.508;10.436;2022-10-31T14:34:22;8.53;;;5.13;;
16963;SDS011;8598;50.508;10.436;2022-10-31T14:36:56;8.93;;;4.97;;
16963;SDS011;8598;50.508;10.436;2022-10-31T14:39:33;9.33;;;5.67;;
16963;SDS011;8598;50.508;10.436;2022-10-31T14:42:10;7.67;;;4.73;;
16963;SDS011;8598;50.508;10.436;2022-10-31T14:47:45;10.27;;;4.83;;
16963;SDS011;8598;50.508;10.436;2022-10-31T14:50:21;15.13;;;8.67;;
16963;SDS011;8598;50.508;10.436;2022-10-31T14:52:56;7.30;;;5.47;;
16963;SDS011;8598;50.508;10.436;2022-10-31T14:55:27;9.77;;;5.47;;
16963;SDS011;8598;50.508;10.436;2022-10-31T14:57:54;11.07;;;5.37;;